Terminal Aerodrome Forecast
Issued by NWS

Home | Current Version | Previous Version | Text Only | Print | Product List | Glossary Off
Versions: 1 2 3 4 5 6 7 8 9 10 11 12 13 14

000
FTUS43 KABR 162046 AAB
TAFMBG
TAF AMD
KMBG 162046Z 1621/1718 34009KT P6SM SCT025 OVC150
     FM162300 36013KT P6SM BKN150
     FM170300 VRB05KT P6SM SKC=

USA.gov is the U.S. government's official web portal to all federal, state and local government web resources and services.